sensor_id;sensor_type;location;lat;lon;timestamp;P1;durP1;ratioP1;P2;durP2;ratioP2
79284;SDS011;68734;50.452;11.636;2023-04-15T00:01:27;7.97;;;5.78;;
79284;SDS011;68734;50.452;11.636;2023-04-15T00:03:54;8.88;;;5.88;;
79284;SDS011;68734;50.452;11.636;2023-04-15T00:06:20;6.50;;;4.80;;
79284;SDS011;68734;50.452;11.636;2023-04-15T00:08:46;8.48;;;6.40;;
79284;SDS011;68734;50.452;11.636;2023-04-15T00:11:13;7.03;;;5.10;;
79284;SDS011;68734;50.452;11.636;2023-04-15T00:13:39;9.27;;;5.78;;
79284;SDS011;68734;50.452;11.636;2023-04-15T00:16:05;7.60;;;5.72;;
79284;SDS011;68734;50.452;11.636;2023-04-15T00:18:32;7.32;;;5.20;;
79284;SDS011;68734;50.452;11.636;2023-04-15T00:20:58;11.57;;;6.28;;
79284;SDS011;68734;50.452;11.636;2023-04-15T00:23:23;8.98;;;5.78;;
79284;SDS011;68734;50.452;11.636;2023-04-15T00:25:50;8.93;;;5.43;;
79284;SDS011;68734;50.452;11.636;2023-04-15T00:28:16;8.60;;;5.53;;
79284;SDS011;68734;50.452;11.636;2023-04-15T00:30:42;7.88;;;5.13;;
79284;SDS011;68734;50.452;11.636;2023-04-15T00:33:07;10.40;;;5.72;;
79284;SDS011;68734;50.452;11.636;2023-04-15T00:35:33;8.63;;;4.85;;
79284;SDS011;68734;50.452;11.636;2023-04-15T00:38:01;7.32;;;5.70;;
79284;SDS011;68734;50.452;11.636;2023-04-15T00:40:27;7.13;;;5.13;;
79284;SDS011;68734;50.452;11.636;2023-04-15T00:42:55;6.15;;;4.78;;
79284;SDS011;68734;50.452;11.636;2023-04-15T00:45:20;7.47;;;5.28;;
79284;SDS011;68734;50.452;11.636;2023-04-15T00:47:46;7.20;;;4.72;;
79284;SDS011;68734;50.452;11.636;2023-04-15T00:50:11;6.38;;;4.88;;
79284;SDS011;68734;50.452;11.636;2023-04-15T00:52:37;8.50;;;5.15;;
79284;SDS011;68734;50.452;11.636;2023-04-15T00:55:03;6.70;;;4.70;;
79284;SDS011;68734;50.452;11.636;2023-04-15T00:57:32;8.70;;;5.47;;
79284;SDS011;68734;50.452;11.636;2023-04-15T00:59:59;8.68;;;5.53;;
79284;SDS011;68734;50.452;11.636;2023-04-15T01:02:25;7.85;;;6.15;;
79284;SDS011;68734;50.452;11.636;2023-04-15T01:04:51;8.10;;;6.03;;
79284;SDS011;68734;50.452;11.636;2023-04-15T01:07:16;9.63;;;6.10;;
79284;SDS011;68734;50.452;11.636;2023-04-15T01:09:42;7.30;;;5.60;;
79284;SDS011;68734;50.452;11.636;2023-04-15T01:12:13;8.43;;;5.85;;
79284;SDS011;68734;50.452;11.636;2023-04-15T01:14:41;7.53;;;5.85;;
79284;SDS011;68734;50.452;11.636;2023-04-15T01:17:06;7.85;;;5.75;;
79284;SDS011;68734;50.452;11.636;2023-04-15T01:19:37;7.90;;;6.07;;
79284;SDS011;68734;50.452;11.636;2023-04-15T01:22:03;8.23;;;6.10;;
79284;SDS011;68734;50.452;11.636;2023-04-15T01:24:30;10.02;;;5.57;;
79284;SDS011;68734;50.452;11.636;2023-04-15T01:26:57;8.93;;;5.22;;
79284;SDS011;68734;50.452;11.636;2023-04-15T01:29:23;10.95;;;5.90;;
79284;SDS011;68734;50.452;11.636;2023-04-15T01:31:52;8.52;;;6.15;;
79284;SDS011;68734;50.452;11.636;2023-04-15T01:34:19;9.35;;;6.45;;
79284;SDS011;68734;50.452;11.636;2023-04-15T01:36:45;8.65;;;6.15;;
79284;SDS011;68734;50.452;11.636;2023-04-15T01:39:11;11.98;;;6.95;;
79284;SDS011;68734;50.452;11.636;2023-04-15T01:41:36;9.85;;;6.80;;
79284;SDS011;68734;50.452;11.636;2023-04-15T01:44:02;9.85;;;6.88;;
79284;SDS011;68734;50.452;11.636;2023-04-15T01:46:27;8.68;;;6.03;;
79284;SDS011;68734;50.452;11.636;2023-04-15T01:48:52;8.02;;;5.40;;
79284;SDS011;68734;50.452;11.636;2023-04-15T01:51:18;7.80;;;5.43;;
79284;SDS011;68734;50.452;11.636;2023-04-15T01:53:43;6.82;;;5.38;;
79284;SDS011;68734;50.452;11.636;2023-04-15T01:56:09;8.15;;;5.97;;
79284;SDS011;68734;50.452;11.636;2023-04-15T01:58:35;7.85;;;5.90;;
79284;SDS011;68734;50.452;11.636;2023-04-15T02:01:00;6.68;;;4.68;;
79284;SDS011;68734;50.452;11.636;2023-04-15T02:03:27;8.68;;;5.82;;
79284;SDS011;68734;50.452;11.636;2023-04-15T02:05:53;7.18;;;5.03;;
79284;SDS011;68734;50.452;11.636;2023-04-15T02:08:19;9.05;;;6.35;;
79284;SDS011;68734;50.452;11.636;2023-04-15T02:10:47;7.70;;;5.65;;
79284;SDS011;68734;50.452;11.636;2023-04-15T02:13:12;8.38;;;5.35;;
79284;SDS011;68734;50.452;11.636;2023-04-15T02:15:38;7.45;;;6.18;;
79284;SDS011;68734;50.452;11.636;2023-04-15T02:18:03;9.02;;;5.38;;
79284;SDS011;68734;50.452;11.636;2023-04-15T02:20:29;7.63;;;5.78;;
79284;SDS011;68734;50.452;11.636;2023-04-15T02:22:54;5.88;;;4.43;;
79284;SDS011;68734;50.452;11.636;2023-04-15T02:25:21;8.20;;;5.50;;
79284;SDS011;68734;50.452;11.636;2023-04-15T02:27:46;7.22;;;5.47;;
79284;SDS011;68734;50.452;11.636;2023-04-15T02:30:12;7.75;;;5.10;;
79284;SDS011;68734;50.452;11.636;2023-04-15T02:32:37;6.60;;;4.55;;
79284;SDS011;68734;50.452;11.636;2023-04-15T02:35:04;7.18;;;5.40;;
79284;SDS011;68734;50.452;11.636;2023-04-15T02:37:31;6.72;;;4.95;;
79284;SDS011;68734;50.452;11.636;2023-04-15T02:40:01;6.75;;;5.10;;
79284;SDS011;68734;50.452;11.636;2023-04-15T02:42:26;8.52;;;5.93;;
79284;SDS011;68734;50.452;11.636;2023-04-15T02:44:54;6.70;;;5.15;;
79284;SDS011;68734;50.452;11.636;2023-04-15T02:47:22;6.03;;;4.72;;
79284;SDS011;68734;50.452;11.636;2023-04-15T02:49:50;7.13;;;5.05;;
79284;SDS011;68734;50.452;11.636;2023-04-15T02:52:15;6.57;;;4.40;;
79284;SDS011;68734;50.452;11.636;2023-04-15T02:54:43;6.35;;;4.43;;
79284;SDS011;68734;50.452;11.636;2023-04-15T02:57:08;6.20;;;4.47;;
79284;SDS011;68734;50.452;11.636;2023-04-15T02:59:35;7.43;;;5.03;;
79284;SDS011;68734;50.452;11.636;2023-04-15T03:02:01;6.22;;;4.80;;
79284;SDS011;68734;50.452;11.636;2023-04-15T03:04:26;7.05;;;4.68;;
79284;SDS011;68734;50.452;11.636;2023-04-15T03:06:54;5.93;;;4.82;;
79284;SDS011;68734;50.452;11.636;2023-04-15T03:09:20;6.18;;;4.13;;
79284;SDS011;68734;50.452;11.636;2023-04-15T03:11:45;5.72;;;3.40;;
79284;SDS011;68734;50.452;11.636;2023-04-15T03:14:11;4.57;;;3.42;;
79284;SDS011;68734;50.452;11.636;2023-04-15T03:16:36;5.10;;;3.42;;
79284;SDS011;68734;50.452;11.636;2023-04-15T03:19:01;5.10;;;3.40;;
79284;SDS011;68734;50.452;11.636;2023-04-15T03:21:27;3.47;;;2.35;;
79284;SDS011;68734;50.452;11.636;2023-04-15T03:23:52;4.38;;;3.22;;
79284;SDS011;68734;50.452;11.636;2023-04-15T03:26:27;4.63;;;2.83;;
79284;SDS011;68734;50.452;11.636;2023-04-15T03:28:54;4.03;;;2.67;;
79284;SDS011;68734;50.452;11.636;2023-04-15T03:31:20;4.40;;;2.75;;
79284;SDS011;68734;50.452;11.636;2023-04-15T03:33:45;4.57;;;3.53;;
79284;SDS011;68734;50.452;11.636;2023-04-15T03:36:16;4.32;;;2.83;;
79284;SDS011;68734;50.452;11.636;2023-04-15T03:38:41;3.90;;;2.92;;
79284;SDS011;68734;50.452;11.636;2023-04-15T03:41:07;4.43;;;3.35;;
79284;SDS011;68734;50.452;11.636;2023-04-15T03:43:33;5.22;;;3.22;;
79284;SDS011;68734;50.452;11.636;2023-04-15T03:45:58;4.63;;;3.58;;
79284;SDS011;68734;50.452;11.636;2023-04-15T03:48:24;5.35;;;3.83;;
79284;SDS011;68734;50.452;11.636;2023-04-15T03:50:49;5.18;;;3.40;;
79284;SDS011;68734;50.452;11.636;2023-04-15T03:53:15;6.30;;;3.92;;
79284;SDS011;68734;50.452;11.636;2023-04-15T03:55:40;4.75;;;3.40;;
79284;SDS011;68734;50.452;11.636;2023-04-15T03:58:06;4.88;;;3.60;;
79284;SDS011;68734;50.452;11.636;2023-04-15T04:00:31;4.95;;;4.15;;
79284;SDS011;68734;50.452;11.636;2023-04-15T04:02:57;4.82;;;3.78;;
79284;SDS011;68734;50.452;11.636;2023-04-15T04:05:22;5.35;;;4.15;;
79284;SDS011;68734;50.452;11.636;2023-04-15T04:07:48;4.22;;;2.55;;
79284;SDS011;68734;50.452;11.636;2023-04-15T04:10:13;5.15;;;3.28;;
79284;SDS011;68734;50.452;11.636;2023-04-15T04:12:40;5.97;;;3.97;;
79284;SDS011;68734;50.452;11.636;2023-04-15T04:15:06;5.88;;;3.45;;
79284;SDS011;68734;50.452;11.636;2023-04-15T04:17:32;4.63;;;3.45;;
79284;SDS011;68734;50.452;11.636;2023-04-15T04:19:57;4.85;;;3.47;;
79284;SDS011;68734;50.452;11.636;2023-04-15T04:22:23;4.57;;;2.97;;
79284;SDS011;68734;50.452;11.636;2023-04-15T04:24:48;4.25;;;2.83;;
79284;SDS011;68734;50.452;11.636;2023-04-15T04:27:14;4.68;;;3.15;;
79284;SDS011;68734;50.452;11.636;2023-04-15T04:29:42;5.07;;;2.85;;
79284;SDS011;68734;50.452;11.636;2023-04-15T04:32:08;5.78;;;3.58;;
79284;SDS011;68734;50.452;11.636;2023-04-15T04:34:33;4.50;;;3.50;;
79284;SDS011;68734;50.452;11.636;2023-04-15T04:37:01;5.68;;;4.07;;
79284;SDS011;68734;50.452;11.636;2023-04-15T04:39:26;4.80;;;4.15;;
79284;SDS011;68734;50.452;11.636;2023-04-15T04:41:52;5.90;;;4.05;;
79284;SDS011;68734;50.452;11.636;2023-04-15T04:44:17;5.30;;;4.43;;
79284;SDS011;68734;50.452;11.636;2023-04-15T04:46:43;6.40;;;4.97;;
79284;SDS011;68734;50.452;11.636;2023-04-15T04:49:08;7.03;;;4.95;;
79284;SDS011;68734;50.452;11.636;2023-04-15T04:51:34;5.47;;;4.43;;
79284;SDS011;68734;50.452;11.636;2023-04-15T04:53:59;6.05;;;3.75;;
79284;SDS011;68734;50.452;11.636;2023-04-15T04:56:25;6.88;;;4.20;;
79284;SDS011;68734;50.452;11.636;2023-04-15T04:58:51;7.07;;;4.57;;
79284;SDS011;68734;50.452;11.636;2023-04-15T05:01:16;6.18;;;4.43;;
79284;SDS011;68734;50.452;11.636;2023-04-15T05:03:42;7.45;;;4.38;;
79284;SDS011;68734;50.452;11.636;2023-04-15T05:06:07;5.45;;;3.92;;
79284;SDS011;68734;50.452;11.636;2023-04-15T05:08:33;4.88;;;3.05;;
79284;SDS011;68734;50.452;11.636;2023-04-15T05:10:58;5.65;;;3.88;;
79284;SDS011;68734;50.452;11.636;2023-04-15T05:13:24;5.28;;;3.10;;
79284;SDS011;68734;50.452;11.636;2023-04-15T05:15:49;5.18;;;3.50;;
79284;SDS011;68734;50.452;11.636;2023-04-15T05:18:15;5.40;;;3.80;;
79284;SDS011;68734;50.452;11.636;2023-04-15T05:20:43;5.78;;;4.30;;
79284;SDS011;68734;50.452;11.636;2023-04-15T05:23:08;6.55;;;4.97;;
79284;SDS011;68734;50.452;11.636;2023-04-15T05:25:34;5.90;;;4.30;;
79284;SDS011;68734;50.452;11.636;2023-04-15T05:28:02;6.75;;;4.25;;
79284;SDS011;68734;50.452;11.636;2023-04-15T05:30:27;6.55;;;4.32;;
79284;SDS011;68734;50.452;11.636;2023-04-15T05:32:52;5.72;;;4.03;;
79284;SDS011;68734;50.452;11.636;2023-04-15T05:35:18;7.03;;;5.38;;
79284;SDS011;68734;50.452;11.636;2023-04-15T05:37:43;5.93;;;4.22;;
79284;SDS011;68734;50.452;11.636;2023-04-15T05:40:09;8.27;;;4.93;;
79284;SDS011;68734;50.452;11.636;2023-04-15T05:42:35;7.28;;;5.22;;
79284;SDS011;68734;50.452;11.636;2023-04-15T05:45:01;7.28;;;5.35;;
79284;SDS011;68734;50.452;11.636;2023-04-15T05:47:29;6.03;;;4.50;;
79284;SDS011;68734;50.452;11.636;2023-04-15T05:49:55;7.18;;;4.70;;
79284;SDS011;68734;50.452;11.636;2023-04-15T05:52:23;7.65;;;5.20;;
79284;SDS011;68734;50.452;11.636;2023-04-15T05:54:48;5.50;;;3.65;;
79284;SDS011;68734;50.452;11.636;2023-04-15T05:57:14;6.68;;;4.57;;
79284;SDS011;68734;50.452;11.636;2023-04-15T05:59:40;5.50;;;4.30;;
79284;SDS011;68734;50.452;11.636;2023-04-15T06:02:06;6.88;;;4.57;;
79284;SDS011;68734;50.452;11.636;2023-04-15T06:04:33;8.25;;;5.47;;
79284;SDS011;68734;50.452;11.636;2023-04-15T06:06:59;7.95;;;6.18;;
79284;SDS011;68734;50.452;11.636;2023-04-15T06:09:24;8.50;;;5.32;;
79284;SDS011;68734;50.452;11.636;2023-04-15T06:11:50;8.32;;;5.50;;
79284;SDS011;68734;50.452;11.636;2023-04-15T06:14:16;8.02;;;5.93;;
79284;SDS011;68734;50.452;11.636;2023-04-15T06:16:41;6.63;;;5.05;;
79284;SDS011;68734;50.452;11.636;2023-04-15T06:19:07;7.55;;;5.20;;
79284;SDS011;68734;50.452;11.636;2023-04-15T06:21:32;8.57;;;4.95;;
79284;SDS011;68734;50.452;11.636;2023-04-15T06:23:58;8.40;;;5.53;;
79284;SDS011;68734;50.452;11.636;2023-04-15T06:26:25;6.88;;;5.28;;
79284;SDS011;68734;50.452;11.636;2023-04-15T06:28:51;9.90;;;5.65;;
79284;SDS011;68734;50.452;11.636;2023-04-15T06:31:16;10.13;;;6.65;;
79284;SDS011;68734;50.452;11.636;2023-04-15T06:33:45;6.88;;;4.43;;
79284;SDS011;68734;50.452;11.636;2023-04-15T06:36:10;5.70;;;3.78;;
79284;SDS011;68734;50.452;11.636;2023-04-15T06:38:36;6.45;;;4.45;;
79284;SDS011;68734;50.452;11.636;2023-04-15T06:41:04;6.43;;;4.80;;
79284;SDS011;68734;50.452;11.636;2023-04-15T06:43:30;7.30;;;5.13;;
79284;SDS011;68734;50.452;11.636;2023-04-15T06:45:56;8.45;;;4.45;;
79284;SDS011;68734;50.452;11.636;2023-04-15T06:48:21;8.20;;;4.55;;
79284;SDS011;68734;50.452;11.636;2023-04-15T06:50:49;6.68;;;4.18;;
79284;SDS011;68734;50.452;11.636;2023-04-15T06:53:14;6.68;;;3.83;;
79284;SDS011;68734;50.452;11.636;2023-04-15T06:55:40;3.08;;;2.60;;
79284;SDS011;68734;50.452;11.636;2023-04-15T06:58:06;4.85;;;3.40;;
79284;SDS011;68734;50.452;11.636;2023-04-15T07:00:31;4.72;;;3.08;;
79284;SDS011;68734;50.452;11.636;2023-04-15T07:02:58;4.70;;;3.72;;
79284;SDS011;68734;50.452;11.636;2023-04-15T07:05:27;7.93;;;3.92;;
79284;SDS011;68734;50.452;11.636;2023-04-15T07:07:53;6.72;;;4.20;;
79284;SDS011;68734;50.452;11.636;2023-04-15T07:10:21;5.50;;;3.40;;
79284;SDS011;68734;50.452;11.636;2023-04-15T07:12:47;6.45;;;4.25;;
79284;SDS011;68734;50.452;11.636;2023-04-15T07:15:13;7.63;;;4.97;;
79284;SDS011;68734;50.452;11.636;2023-04-15T07:17:40;6.03;;;4.63;;
79284;SDS011;68734;50.452;11.636;2023-04-15T07:20:07;4.00;;;3.10;;
79284;SDS011;68734;50.452;11.636;2023-04-15T07:22:33;6.10;;;4.53;;
79284;SDS011;68734;50.452;11.636;2023-04-15T07:24:58;7.00;;;4.53;;
79284;SDS011;68734;50.452;11.636;2023-04-15T07:27:26;6.43;;;4.15;;
79284;SDS011;68734;50.452;11.636;2023-04-15T07:29:51;7.00;;;4.88;;
79284;SDS011;68734;50.452;11.636;2023-04-15T07:32:17;8.23;;;4.70;;
79284;SDS011;68734;50.452;11.636;2023-04-15T07:34:46;8.07;;;4.55;;
79284;SDS011;68734;50.452;11.636;2023-04-15T07:37:13;7.80;;;5.00;;
79284;SDS011;68734;50.452;11.636;2023-04-15T07:39:39;10.45;;;5.40;;
79284;SDS011;68734;50.452;11.636;2023-04-15T07:42:04;6.95;;;4.93;;
79284;SDS011;68734;50.452;11.636;2023-04-15T07:44:30;7.80;;;4.43;;
79284;SDS011;68734;50.452;11.636;2023-04-15T07:46:56;8.70;;;5.13;;
79284;SDS011;68734;50.452;11.636;2023-04-15T07:49:21;7.57;;;4.85;;
79284;SDS011;68734;50.452;11.636;2023-04-15T07:51:47;8.48;;;5.45;;
79284;SDS011;68734;50.452;11.636;2023-04-15T07:54:13;8.73;;;5.40;;
79284;SDS011;68734;50.452;11.636;2023-04-15T07:56:39;5.75;;;4.68;;
79284;SDS011;68734;50.452;11.636;2023-04-15T07:59:05;7.45;;;4.20;;
79284;SDS011;68734;50.452;11.636;2023-04-15T08:01:36;7.50;;;4.90;;
79284;SDS011;68734;50.452;11.636;2023-04-15T08:04:01;8.30;;;4.57;;
79284;SDS011;68734;50.452;11.636;2023-04-15T08:06:29;6.05;;;4.35;;
79284;SDS011;68734;50.452;11.636;2023-04-15T08:08:55;5.45;;;4.32;;
79284;SDS011;68734;50.452;11.636;2023-04-15T08:11:20;5.97;;;3.92;;
79284;SDS011;68734;50.452;11.636;2023-04-15T08:13:47;6.80;;;4.20;;
79284;SDS011;68734;50.452;11.636;2023-04-15T08:18:43;6.65;;;3.78;;
79284;SDS011;68734;50.452;11.636;2023-04-15T08:21:09;5.43;;;3.75;;
79284;SDS011;68734;50.452;11.636;2023-04-15T08:23:35;3.45;;;2.50;;
79284;SDS011;68734;50.452;11.636;2023-04-15T08:26:01;4.07;;;3.20;;
79284;SDS011;68734;50.452;11.636;2023-04-15T08:28:26;3.92;;;2.78;;
79284;SDS011;68734;50.452;11.636;2023-04-15T08:30:52;3.20;;;2.15;;
79284;SDS011;68734;50.452;11.636;2023-04-15T08:33:20;4.15;;;3.00;;
79284;SDS011;68734;50.452;11.636;2023-04-15T08:35:45;3.97;;;2.70;;
79284;SDS011;68734;50.452;11.636;2023-04-15T08:38:11;4.60;;;3.10;;
79284;SDS011;68734;50.452;11.636;2023-04-15T08:40:40;4.00;;;3.35;;
79284;SDS011;68734;50.452;11.636;2023-04-15T08:43:08;5.40;;;3.20;;
79284;SDS011;68734;50.452;11.636;2023-04-15T08:45:37;4.25;;;3.33;;
79284;SDS011;68734;50.452;11.636;2023-04-15T08:48:03;3.92;;;2.75;;
79284;SDS011;68734;50.452;11.636;2023-04-15T08:50:32;4.60;;;3.40;;
79284;SDS011;68734;50.452;11.636;2023-04-15T08:52:58;4.07;;;3.42;;
79284;SDS011;68734;50.452;11.636;2023-04-15T08:55:26;4.35;;;3.45;;
79284;SDS011;68734;50.452;11.636;2023-04-15T08:57:57;5.28;;;3.55;;
79284;SDS011;68734;50.452;11.636;2023-04-15T09:00:25;5.53;;;3.58;;
79284;SDS011;68734;50.452;11.636;2023-04-15T09:02:51;5.15;;;3.80;;
79284;SDS011;68734;50.452;11.636;2023-04-15T09:05:20;5.53;;;4.10;;
79284;SDS011;68734;50.452;11.636;2023-04-15T09:07:49;4.82;;;3.58;;
79284;SDS011;68734;50.452;11.636;2023-04-15T09:10:17;3.78;;;3.28;;
79284;SDS011;68734;50.452;11.636;2023-04-15T09:12:42;5.15;;;3.20;;
79284;SDS011;68734;50.452;11.636;2023-04-15T09:15:11;5.47;;;3.28;;
79284;SDS011;68734;50.452;11.636;2023-04-15T09:17:41;4.95;;;3.05;;
79284;SDS011;68734;50.452;11.636;2023-04-15T09:22:34;5.30;;;3.42;;
79284;SDS011;68734;50.452;11.636;2023-04-15T09:25:03;5.50;;;2.95;;
79284;SDS011;68734;50.452;11.636;2023-04-15T09:30:16;3.33;;;2.90;;
79284;SDS011;68734;50.452;11.636;2023-04-15T09:32:52;3.22;;;2.78;;
79284;SDS011;68734;50.452;11.636;2023-04-15T09:35:20;4.00;;;2.45;;
79284;SDS011;68734;50.452;11.636;2023-04-15T09:37:47;3.75;;;2.75;;
79284;SDS011;68734;50.452;11.636;2023-04-15T09:40:14;3.50;;;2.63;;
79284;SDS011;68734;50.452;11.636;2023-04-15T09:42:56;3.65;;;2.83;;
79284;SDS011;68734;50.452;11.636;2023-04-15T09:45:24;3.45;;;2.33;;
79284;SDS011;68734;50.452;11.636;2023-04-15T09:47:50;3.33;;;2.80;;
79284;SDS011;68734;50.452;11.636;2023-04-15T09:50:17;3.05;;;2.20;;
79284;SDS011;68734;50.452;11.636;2023-04-15T09:52:43;2.97;;;2.30;;
79284;SDS011;68734;50.452;11.636;2023-04-15T09:55:09;3.35;;;1.90;;
79284;SDS011;68734;50.452;11.636;2023-04-15T09:57:35;2.65;;;1.80;;
79284;SDS011;68734;50.452;11.636;2023-04-15T10:00:05;3.53;;;2.53;;
79284;SDS011;68734;50.452;11.636;2023-04-15T10:02:33;3.63;;;2.22;;
79284;SDS011;68734;50.452;11.636;2023-04-15T10:05:02;2.38;;;1.70;;
79284;SDS011;68734;50.452;11.636;2023-04-15T10:07:28;1.90;;;1.30;;
79284;SDS011;68734;50.452;11.636;2023-04-15T10:09:56;2.00;;;1.20;;
79284;SDS011;68734;50.452;11.636;2023-04-15T10:12:23;1.95;;;1.40;;
79284;SDS011;68734;50.452;11.636;2023-04-15T10:14:55;1.60;;;1.10;;
79284;SDS011;68734;50.452;11.636;2023-04-15T10:17:23;1.85;;;1.08;;
79284;SDS011;68734;50.452;11.636;2023-04-15T10:19:52;2.83;;;1.13;;
79284;SDS011;68734;50.452;11.636;2023-04-15T10:22:24;1.30;;;1.20;;
79284;SDS011;68734;50.452;11.636;2023-04-15T10:24:52;1.58;;;1.10;;
79284;SDS011;68734;50.452;11.636;2023-04-15T10:27:17;1.23;;;1.00;;
79284;SDS011;68734;50.452;11.636;2023-04-15T10:29:44;2.10;;;1.10;;
79284;SDS011;68734;50.452;11.636;2023-04-15T10:32:11;1.67;;;1.35;;
79284;SDS011;68734;50.452;11.636;2023-04-15T10:34:40;1.35;;;0.90;;
79284;SDS011;68734;50.452;11.636;2023-04-15T10:37:07;1.48;;;1.17;;
79284;SDS011;68734;50.452;11.636;2023-04-15T10:42:07;1.23;;;0.80;;
79284;SDS011;68734;50.452;11.636;2023-04-15T10:44:37;2.08;;;1.52;;
79284;SDS011;68734;50.452;11.636;2023-04-15T10:47:09;1.45;;;1.10;;
79284;SDS011;68734;50.452;11.636;2023-04-15T10:49:43;31.95;;;18.20;;
79284;SDS011;68734;50.452;11.636;2023-04-15T10:52:29;1.60;;;1.23;;
79284;SDS011;68734;50.452;11.636;2023-04-15T10:55:13;1.55;;;1.33;;
79284;SDS011;68734;50.452;11.636;2023-04-15T10:57:43;1.77;;;1.15;;
79284;SDS011;68734;50.452;11.636;2023-04-15T11:00:15;2.35;;;1.63;;
79284;SDS011;68734;50.452;11.636;2023-04-15T11:05:20;1.30;;;1.00;;
79284;SDS011;68734;50.452;11.636;2023-04-15T11:08:05;1.70;;;1.30;;
79284;SDS011;68734;50.452;11.636;2023-04-15T11:13:19;1.17;;;0.87;;
79284;SDS011;68734;50.452;11.636;2023-04-15T11:15:47;1.73;;;1.20;;
79284;SDS011;68734;50.452;11.636;2023-04-15T11:20:55;3.72;;;1.55;;
79284;SDS011;68734;50.452;11.636;2023-04-15T11:25:58;1.35;;;1.08;;
79284;SDS011;68734;50.452;11.636;2023-04-15T11:28:28;1.85;;;1.42;;
79284;SDS011;68734;50.452;11.636;2023-04-15T11:30:55;2.03;;;1.58;;
79284;SDS011;68734;50.452;11.636;2023-04-15T11:33:21;1.95;;;1.45;;
79284;SDS011;68734;50.452;11.636;2023-04-15T11:35:48;2.08;;;1.42;;
79284;SDS011;68734;50.452;11.636;2023-04-15T11:38:14;4.25;;;1.90;;
79284;SDS011;68734;50.452;11.636;2023-04-15T11:40:41;2.55;;;1.60;;
79284;SDS011;68734;50.452;11.636;2023-04-15T11:43:08;2.67;;;1.90;;
79284;SDS011;68734;50.452;11.636;2023-04-15T11:45:35;2.72;;;1.92;;
79284;SDS011;68734;50.452;11.636;2023-04-15T11:48:08;2.40;;;1.80;;
79284;SDS011;68734;50.452;11.636;2023-04-15T11:50:35;2.30;;;1.88;;
79284;SDS011;68734;50.452;11.636;2023-04-15T11:53:05;2.50;;;2.00;;
79284;SDS011;68734;50.452;11.636;2023-04-15T11:58:13;2.65;;;1.90;;
79284;SDS011;68734;50.452;11.636;2023-04-15T12:00:52;2.60;;;2.08;;
79284;SDS011;68734;50.452;11.636;2023-04-15T12:03:29;3.45;;;2.58;;
79284;SDS011;68734;50.452;11.636;2023-04-15T12:13:52;2.53;;;1.95;;
79284;SDS011;68734;50.452;11.636;2023-04-15T12:16:20;2.45;;;1.88;;
79284;SDS011;68734;50.452;11.636;2023-04-15T12:18:46;2.30;;;1.88;;
79284;SDS011;68734;50.452;11.636;2023-04-15T12:21:20;2.13;;;1.60;;
79284;SDS011;68734;50.452;11.636;2023-04-15T12:23:50;3.63;;;1.50;;
79284;SDS011;68734;50.452;11.636;2023-04-15T12:26:17;1.10;;;0.95;;
79284;SDS011;68734;50.452;11.636;2023-04-15T12:28:52;2.20;;;1.55;;
79284;SDS011;68734;50.452;11.636;2023-04-15T12:31:26;1.60;;;1.25;;
79284;SDS011;68734;50.452;11.636;2023-04-15T12:33:57;1.88;;;1.27;;
79284;SDS011;68734;50.452;11.636;2023-04-15T12:36:29;1.40;;;1.10;;
79284;SDS011;68734;50.452;11.636;2023-04-15T12:39:02;1.55;;;1.00;;
79284;SDS011;68734;50.452;11.636;2023-04-15T12:41:32;1.38;;;1.10;;
79284;SDS011;68734;50.452;11.636;2023-04-15T12:43:58;1.00;;;0.90;;
79284;SDS011;68734;50.452;11.636;2023-04-15T12:46:24;2.72;;;1.35;;
79284;SDS011;68734;50.452;11.636;2023-04-15T12:48:52;1.25;;;1.00;;
79284;SDS011;68734;50.452;11.636;2023-04-15T12:51:18;1.38;;;1.10;;
79284;SDS011;68734;50.452;11.636;2023-04-15T12:53:48;1.52;;;1.23;;
79284;SDS011;68734;50.452;11.636;2023-04-15T12:56:13;2.40;;;1.80;;
79284;SDS011;68734;50.452;11.636;2023-04-15T12:58:42;1.13;;;0.77;;
79284;SDS011;68734;50.452;11.636;2023-04-15T13:01:07;1.60;;;1.13;;
79284;SDS011;68734;50.452;11.636;2023-04-15T13:03:36;1.58;;;1.20;;
79284;SDS011;68734;50.452;11.636;2023-04-15T13:06:01;1.30;;;1.00;;
79284;SDS011;68734;50.452;11.636;2023-04-15T13:08:28;1.45;;;1.08;;
79284;SDS011;68734;50.452;11.636;2023-04-15T13:10:54;1.60;;;1.10;;
79284;SDS011;68734;50.452;11.636;2023-04-15T13:13:20;1.38;;;1.05;;
79284;SDS011;68734;50.452;11.636;2023-04-15T13:15:48;2.05;;;1.27;;
79284;SDS011;68734;50.452;11.636;2023-04-15T13:18:14;2.15;;;0.95;;
79284;SDS011;68734;50.452;11.636;2023-04-15T13:20:39;1.35;;;0.93;;
79284;SDS011;68734;50.452;11.636;2023-04-15T13:23:05;1.25;;;1.05;;
79284;SDS011;68734;50.452;11.636;2023-04-15T13:25:33;1.00;;;0.90;;
79284;SDS011;68734;50.452;11.636;2023-04-15T13:27:59;1.48;;;0.93;;
79284;SDS011;68734;50.452;11.636;2023-04-15T13:30:25;1.63;;;1.02;;
79284;SDS011;68734;50.452;11.636;2023-04-15T13:32:53;1.02;;;0.90;;
79284;SDS011;68734;50.452;11.636;2023-04-15T13:35:19;1.60;;;1.00;;
79284;SDS011;68734;50.452;11.636;2023-04-15T13:37:47;1.85;;;1.10;;
79284;SDS011;68734;50.452;11.636;2023-04-15T13:40:12;1.40;;;1.25;;
79284;SDS011;68734;50.452;11.636;2023-04-15T13:42:37;9.40;;;6.28;;
79284;SDS011;68734;50.452;11.636;2023-04-15T13:45:03;1.90;;;1.20;;
79284;SDS011;68734;50.452;11.636;2023-04-15T13:47:29;1.88;;;1.40;;
79284;SDS011;68734;50.452;11.636;2023-04-15T13:49:54;1.77;;;1.00;;
79284;SDS011;68734;50.452;11.636;2023-04-15T13:52:21;1.40;;;1.02;;
79284;SDS011;68734;50.452;11.636;2023-04-15T13:54:47;3.00;;;1.50;;
79284;SDS011;68734;50.452;11.636;2023-04-15T13:57:12;1.40;;;1.15;;
79284;SDS011;68734;50.452;11.636;2023-04-15T13:59:38;1.88;;;1.33;;
79284;SDS011;68734;50.452;11.636;2023-04-15T14:02:03;1.52;;;1.20;;
79284;SDS011;68734;50.452;11.636;2023-04-15T14:04:30;1.80;;;1.33;;
79284;SDS011;68734;50.452;11.636;2023-04-15T14:06:58;2.83;;;1.88;;
79284;SDS011;68734;50.452;11.636;2023-04-15T14:09:27;1.98;;;1.60;;
79284;SDS011;68734;50.452;11.636;2023-04-15T14:11:53;2.45;;;1.90;;
79284;SDS011;68734;50.452;11.636;2023-04-15T14:14:18;1.60;;;1.25;;
79284;SDS011;68734;50.452;11.636;2023-04-15T14:16:44;1.63;;;1.38;;
79284;SDS011;68734;50.452;11.636;2023-04-15T14:19:10;2.90;;;2.20;;
79284;SDS011;68734;50.452;11.636;2023-04-15T14:21:37;2.10;;;1.90;;
79284;SDS011;68734;50.452;11.636;2023-04-15T14:24:03;5.65;;;3.58;;
79284;SDS011;68734;50.452;11.636;2023-04-15T14:26:28;2.75;;;1.80;;
79284;SDS011;68734;50.452;11.636;2023-04-15T14:28:56;1.83;;;1.27;;
79284;SDS011;68734;50.452;11.636;2023-04-15T14:31:22;1.67;;;1.25;;
79284;SDS011;68734;50.452;11.636;2023-04-15T14:33:50;2.35;;;1.60;;
79284;SDS011;68734;50.452;11.636;2023-04-15T14:36:15;1.65;;;1.40;;
79284;SDS011;68734;50.452;11.636;2023-04-15T14:38:41;1.77;;;1.33;;
79284;SDS011;68734;50.452;11.636;2023-04-15T14:41:06;1.77;;;1.38;;
79284;SDS011;68734;50.452;11.636;2023-04-15T14:43:32;1.70;;;1.40;;
79284;SDS011;68734;50.452;11.636;2023-04-15T14:45:58;1.00;;;0.90;;
79284;SDS011;68734;50.452;11.636;2023-04-15T14:48:24;2.10;;;1.25;;
79284;SDS011;68734;50.452;11.636;2023-04-15T14:50:52;1.85;;;1.63;;
79284;SDS011;68734;50.452;11.636;2023-04-15T14:53:18;1.42;;;1.10;;
79284;SDS011;68734;50.452;11.636;2023-04-15T14:55:43;1.27;;;0.95;;
79284;SDS011;68734;50.452;11.636;2023-04-15T14:58:12;1.20;;;0.88;;
79284;SDS011;68734;50.452;11.636;2023-04-15T15:00:40;1.17;;;0.88;;
79284;SDS011;68734;50.452;11.636;2023-04-15T15:03:08;1.77;;;1.30;;